createdAt,value
2019-05-18T00:01:38.735Z,31.97
2019-05-18T00:04:07.394Z,34.53
2019-05-18T00:06:36.066Z,24.32
2019-05-18T00:09:05.852Z,27.52
2019-05-18T00:11:34.732Z,27.73
2019-05-18T00:14:07.537Z,32.67
2019-05-18T00:16:38.082Z,30.55
2019-05-18T00:19:06.891Z,31.77
2019-05-18T00:21:35.262Z,32.23
2019-05-18T00:24:04.902Z,31.40
2019-05-18T00:26:33.286Z,23.22
2019-05-18T00:29:01.962Z,26.60
2019-05-18T00:31:30.637Z,25.08
2019-05-18T00:33:59.368Z,25.10
2019-05-18T00:36:28.660Z,25.80
2019-05-18T00:38:57.611Z,23.30
2019-05-18T00:41:26.333Z,32.98
2019-05-18T00:43:54.724Z,25.25
2019-05-18T00:46:23.118Z,28.57
2019-05-18T00:48:52.135Z,32.60
2019-05-18T00:51:23.315Z,27.42
2019-05-18T00:56:21.560Z,31.37
2019-05-18T00:58:50.185Z,31.27
2019-05-18T01:01:18.942Z,27.93
2019-05-18T01:03:47.260Z,29.72
2019-05-18T01:06:15.973Z,29.37
2019-05-18T01:08:45.005Z,23.80
2019-05-18T01:11:13.676Z,23.47
2019-05-18T01:13:42.301Z,23.07
2019-05-18T01:16:11.950Z,30.08
2019-05-18T01:18:42.463Z,25.23
2019-05-18T01:21:11.139Z,25.30
2019-05-18T01:23:39.928Z,23.32
2019-05-18T01:26:08.197Z,25.45
2019-05-18T01:28:36.588Z,26.33
2019-05-18T01:31:05.237Z,25.70
2019-05-18T01:33:33.989Z,26.62
2019-05-18T01:36:02.347Z,25.57
2019-05-18T01:38:31.102Z,26.50
2019-05-18T01:40:59.706Z,26.12
2019-05-18T01:43:27.966Z,23.85
2019-05-18T01:45:56.861Z,25.97
2019-05-18T01:48:25.168Z,32.28
2019-05-18T01:50:53.543Z,31.48
2019-05-18T01:53:21.922Z,26.77
2019-05-18T01:55:50.662Z,27.22
2019-05-18T01:58:20.598Z,26.80
2019-05-18T02:00:48.918Z,27.42
2019-05-18T02:03:17.966Z,32.13
2019-05-18T02:05:46.625Z,23.95
2019-05-18T02:08:14.986Z,26.82
2019-05-18T02:10:43.663Z,24.85
2019-05-18T02:13:12.385Z,25.05
2019-05-18T02:15:41.027Z,26.60
2019-05-18T02:18:10.374Z,33.38
2019-05-18T02:20:40.818Z,28.15
2019-05-18T02:23:09.265Z,24.18
2019-05-18T02:25:37.994Z,29.48
2019-05-18T02:28:07.048Z,27.40
2019-05-18T02:30:35.655Z,27.55
2019-05-18T02:33:04.086Z,27.77
2019-05-18T02:35:32.697Z,30.70
2019-05-18T02:38:14.495Z,29.25
2019-05-18T02:40:43.533Z,26.37
2019-05-18T02:43:12.944Z,31.23
2019-05-18T02:45:41.250Z,26.05
2019-05-18T02:48:09.862Z,25.88
2019-05-18T02:50:38.612Z,26.25
2019-05-18T02:53:07.326Z,27.82
2019-05-18T02:55:36.064Z,28.57
2019-05-18T02:58:05.041Z,32.13
2019-05-18T03:00:33.701Z,37.55
2019-05-18T03:03:04.135Z,29.65
2019-05-18T03:05:32.962Z,29.15
2019-05-18T03:08:01.802Z,31.15
2019-05-18T03:10:30.640Z,36.10
2019-05-18T03:12:59.249Z,33.90
2019-05-18T03:15:27.702Z,36.23
2019-05-18T03:17:56.066Z,31.50
2019-05-18T03:20:25.941Z,37.53
2019-05-18T03:22:56.902Z,39.38
2019-05-18T03:25:25.192Z,36.60
2019-05-18T03:27:53.615Z,34.35
2019-05-18T03:30:22.251Z,39.20
2019-05-18T03:32:51.361Z,38.98
2019-05-18T03:35:19.889Z,37.08
2019-05-18T03:37:48.710Z,45.75
2019-05-18T03:40:17.510Z,41.68
2019-05-18T03:42:45.987Z,45.50
2019-05-18T03:45:15.009Z,47.90
2019-05-18T03:47:43.725Z,41.65
2019-05-18T03:50:12.297Z,56.95
2019-05-18T03:52:40.776Z,47.58
2019-05-18T03:55:09.100Z,53.58
2019-05-18T03:57:37.840Z,51.23
2019-05-18T04:00:07.036Z,51.58
2019-05-18T04:02:35.466Z,53.38
2019-05-18T04:05:04.198Z,50.40
2019-05-18T04:07:33.182Z,57.88
2019-05-18T04:10:02.173Z,55.25
2019-05-18T04:12:30.840Z,56.85
2019-05-18T04:14:59.591Z,56.28
2019-05-18T04:17:27.941Z,56.20
2019-05-18T04:19:56.608Z,54.65
2019-05-18T04:22:26.538Z,50.80
2019-05-18T04:27:25.290Z,58.33
2019-05-18T04:29:53.815Z,67.85
2019-05-18T04:32:22.530Z,60.58
2019-05-18T04:34:51.216Z,58.48
2019-05-18T04:37:19.841Z,55.40
2019-05-18T04:39:48.551Z,51.88
2019-05-18T04:42:16.936Z,53.30
2019-05-18T04:44:45.933Z,47.65
2019-05-18T04:47:14.301Z,45.30
2019-05-18T04:49:43.002Z,45.85
2019-05-18T04:52:11.639Z,39.23
2019-05-18T04:54:40.407Z,41.60
2019-05-18T04:57:09.070Z,41.40
2019-05-18T04:59:37.768Z,40.63
2019-05-18T05:02:06.389Z,40.43
2019-05-18T05:04:35.100Z,41.30
2019-05-18T05:07:03.501Z,45.73
2019-05-18T05:09:32.471Z,52.80
2019-05-18T05:12:01.663Z,40.90
2019-05-18T05:14:30.496Z,50.55
2019-05-18T05:16:59.150Z,52.88
2019-05-18T05:19:28.099Z,48.30
2019-05-18T05:21:56.547Z,49.73
2019-05-18T05:24:25.519Z,55.85
2019-05-18T05:26:56.081Z,54.73
2019-05-18T05:29:24.424Z,49.08
2019-05-18T05:31:53.109Z,46.10
2019-05-18T05:34:21.806Z,51.70
2019-05-18T05:36:50.923Z,53.50
2019-05-18T05:39:19.496Z,52.13
2019-05-18T05:41:48.109Z,46.75
2019-05-18T05:44:16.609Z,49.85
2019-05-18T05:46:45.569Z,52.27
2019-05-18T05:49:14.424Z,46.83
2019-05-18T05:51:42.937Z,38.85
2019-05-18T05:54:12.833Z,39.98
2019-05-18T05:56:42.025Z,31.73
2019-05-18T05:59:10.864Z,34.60
2019-05-18T06:01:39.239Z,27.90
2019-05-18T06:04:07.942Z,20.43
2019-05-18T06:06:36.581Z,24.15
2019-05-18T06:09:07.406Z,30.02
2019-05-18T06:11:36.424Z,25.08
2019-05-18T06:14:04.768Z,28.98
2019-05-18T06:16:33.214Z,27.90
2019-05-18T06:19:02.791Z,38.23
2019-05-18T06:21:31.491Z,36.95
2019-05-18T06:23:59.835Z,30.17
2019-05-18T06:26:28.832Z,31.02
2019-05-18T06:29:00.110Z,44.20
2019-05-18T06:31:28.963Z,32.93
2019-05-18T06:33:57.505Z,31.50
2019-05-18T06:36:26.027Z,31.93
2019-05-18T06:38:54.714Z,29.42
2019-05-18T06:41:23.158Z,35.63
2019-05-18T06:43:51.784Z,36.73
2019-05-18T06:46:20.216Z,29.23
2019-05-18T06:48:48.872Z,32.23
2019-05-18T06:51:17.692Z,19.48
2019-05-18T06:53:47.993Z,21.90
2019-05-18T06:56:17.453Z,24.67
2019-05-18T06:58:46.939Z,25.40
2019-05-18T07:01:15.781Z,25.92
2019-05-18T07:03:45.142Z,25.77
2019-05-18T07:06:13.710Z,26.48
2019-05-18T07:08:42.385Z,25.20
2019-05-18T07:11:10.679Z,25.45
2019-05-18T07:13:39.687Z,23.22
2019-05-18T07:16:08.455Z,25.32
2019-05-18T07:18:37.163Z,25.92
2019-05-18T07:21:05.804Z,27.50
2019-05-18T07:23:34.764Z,23.62
2019-05-18T07:26:03.180Z,23.95
2019-05-18T07:28:32.172Z,24.70
2019-05-18T07:31:02.661Z,32.63
2019-05-18T07:33:31.647Z,29.80
2019-05-18T07:36:00.378Z,31.05
2019-05-18T07:38:30.296Z,25.52
2019-05-18T07:40:58.961Z,30.48
2019-05-18T07:43:28.015Z,25.52
2019-05-18T07:45:56.355Z,22.42
2019-05-18T07:48:24.655Z,22.30
2019-05-18T07:50:53.117Z,25.88
2019-05-18T07:53:21.770Z,25.62
2019-05-18T07:55:50.299Z,30.35
2019-05-18T07:58:19.505Z,26.75
2019-05-18T08:00:48.207Z,29.40
2019-05-18T08:03:16.998Z,27.50
2019-05-18T08:05:46.178Z,31.85
2019-05-18T08:08:14.615Z,30.20
2019-05-18T08:10:44.479Z,30.23
2019-05-18T08:13:12.849Z,29.63
2019-05-18T08:15:41.841Z,34.58
2019-05-18T08:18:10.494Z,28.65
2019-05-18T08:20:39.144Z,27.98
2019-05-18T08:23:07.596Z,30.35
2019-05-18T08:25:35.952Z,31.73
2019-05-18T08:28:06.197Z,27.48
2019-05-18T08:30:36.089Z,32.90
2019-05-18T08:35:34.691Z,23.30
2019-05-18T08:38:04.902Z,27.98
2019-05-18T08:40:33.329Z,33.13
2019-05-18T08:43:02.018Z,25.92
2019-05-18T08:45:30.383Z,35.78
2019-05-18T08:47:59.080Z,29.77
2019-05-18T08:50:27.736Z,24.80
2019-05-18T08:52:56.779Z,25.40
2019-05-18T08:55:25.161Z,20.08
2019-05-18T08:57:57.576Z,17.75
2019-05-18T09:00:26.262Z,23.22
2019-05-18T09:02:56.383Z,14.77
2019-05-18T09:05:24.867Z,18.87
2019-05-18T09:07:53.478Z,13.98
2019-05-18T09:10:22.199Z,14.50
2019-05-18T09:12:51.134Z,11.60
2019-05-18T09:15:20.201Z,13.80
2019-05-18T09:17:49.439Z,12.07
2019-05-18T09:20:18.736Z,14.95
2019-05-18T09:22:47.216Z,11.18
2019-05-18T09:25:15.959Z,14.38
2019-05-18T09:27:44.851Z,14.15
2019-05-18T09:30:13.568Z,10.90
2019-05-18T09:32:42.509Z,10.63
2019-05-18T09:35:13.647Z,11.88
2019-05-18T09:37:42.312Z,11.15
2019-05-18T09:40:11.599Z,10.78
2019-05-18T09:42:40.599Z,14.63
2019-05-18T09:45:10.130Z,10.58
2019-05-18T09:47:38.955Z,13.90
2019-05-18T09:50:08.353Z,10.95
2019-05-18T09:52:44.953Z,11.35
2019-05-18T09:57:37.706Z,9.48
2019-05-18T10:00:07.247Z,14.07
2019-05-18T10:02:36.279Z,8.70
2019-05-18T10:05:06.133Z,9.40
2019-05-18T10:07:34.868Z,10.98
2019-05-18T10:10:03.948Z,7.83
2019-05-18T10:12:32.561Z,10.18
2019-05-18T10:15:02.225Z,13.00
2019-05-18T10:17:30.809Z,10.53
2019-05-18T10:19:59.882Z,7.83
2019-05-18T10:22:28.837Z,7.87
2019-05-18T10:24:57.545Z,7.53
2019-05-18T10:27:26.415Z,7.85
2019-05-18T10:29:55.176Z,7.85
2019-05-18T10:32:23.951Z,7.75
2019-05-18T10:34:52.590Z,9.15
2019-05-18T10:39:51.499Z,8.48
2019-05-18T10:42:19.892Z,9.05
2019-05-18T10:44:48.581Z,11.22
2019-05-18T10:47:17.509Z,7.60
2019-05-18T10:49:46.200Z,7.97
2019-05-18T10:52:14.912Z,10.80
2019-05-18T10:54:43.568Z,11.12
2019-05-18T10:57:12.317Z,12.23
2019-05-18T10:59:41.234Z,11.45
2019-05-18T11:02:09.705Z,7.67
2019-05-18T11:04:38.095Z,10.28
2019-05-18T11:07:06.774Z,10.05
2019-05-18T11:09:35.082Z,10.48
2019-05-18T11:12:04.417Z,11.70
2019-05-18T11:14:34.040Z,10.65
2019-05-18T11:17:03.035Z,12.23
2019-05-18T11:19:31.993Z,12.03
2019-05-18T11:22:01.309Z,11.10
2019-05-18T11:24:29.950Z,10.95
2019-05-18T11:26:58.416Z,10.53
2019-05-18T11:29:27.077Z,13.78
2019-05-18T11:31:55.731Z,16.87
2019-05-18T11:34:24.471Z,11.33
2019-05-18T11:36:53.168Z,9.80
2019-05-18T11:41:51.679Z,9.73
2019-05-18T11:44:20.129Z,10.90
2019-05-18T11:46:48.805Z,10.80
2019-05-18T11:49:17.478Z,10.20
2019-05-18T11:51:46.204Z,9.98
2019-05-18T11:54:14.782Z,9.63
2019-05-18T11:56:43.228Z,9.70
2019-05-18T11:59:15.484Z,9.35
2019-05-18T12:01:42.452Z,10.90
2019-05-18T12:04:10.811Z,10.03
2019-05-18T12:06:39.272Z,9.98
2019-05-18T12:09:07.905Z,13.10
2019-05-18T12:11:36.936Z,12.78
2019-05-18T12:14:05.573Z,11.03
2019-05-18T12:16:34.081Z,10.90
2019-05-18T12:19:03.855Z,12.85
2019-05-18T12:21:32.664Z,12.82
2019-05-18T12:24:14.137Z,13.72
2019-05-18T12:26:31.772Z,10.40
2019-05-18T12:29:00.463Z,10.40
2019-05-18T12:31:29.217Z,11.88
2019-05-18T12:33:58.153Z,10.05
2019-05-18T12:36:26.548Z,11.60
2019-05-18T12:38:56.733Z,9.15
2019-05-18T12:41:29.880Z,9.05
2019-05-18T12:43:58.656Z,9.90
2019-05-18T12:46:27.167Z,10.65
2019-05-18T12:48:56.121Z,16.75
2019-05-18T12:51:24.770Z,12.35
2019-05-18T12:53:53.270Z,9.48
2019-05-18T12:56:21.863Z,11.95
2019-05-18T12:58:51.514Z,9.83
2019-05-18T13:01:20.165Z,8.38
2019-05-18T13:03:48.819Z,13.90
2019-05-18T13:06:17.926Z,10.48
2019-05-18T13:08:46.528Z,11.08
2019-05-18T13:11:15.310Z,10.38
2019-05-18T13:13:44.223Z,9.70
2019-05-18T13:16:12.906Z,10.03
2019-05-18T13:18:41.583Z,14.18
2019-05-18T13:21:11.179Z,9.55
2019-05-18T13:23:39.589Z,13.95
2019-05-18T13:26:08.545Z,10.65
2019-05-18T13:28:37.598Z,10.65
2019-05-18T13:31:06.382Z,7.12
2019-05-18T13:33:34.872Z,10.85
2019-05-18T13:36:05.484Z,9.30
2019-05-18T13:38:34.464Z,8.40
2019-05-18T13:41:04.715Z,8.78
2019-05-18T13:43:35.322Z,10.20
2019-05-18T13:46:03.878Z,9.73
2019-05-18T13:48:32.524Z,20.08
2019-05-18T13:51:01.543Z,10.35
2019-05-18T13:53:29.900Z,8.03
2019-05-18T13:55:58.681Z,12.07
2019-05-18T13:58:27.700Z,10.82
2019-05-18T14:00:56.641Z,9.48
2019-05-18T14:03:25.384Z,14.63
2019-05-18T14:05:54.562Z,9.40
2019-05-18T14:08:23.777Z,8.00
2019-05-18T14:10:52.270Z,10.32
2019-05-18T14:13:20.722Z,8.23
2019-05-18T14:15:49.074Z,9.05
2019-05-18T14:18:17.762Z,10.10
2019-05-18T14:20:46.625Z,7.90
2019-05-18T14:23:15.738Z,10.23
2019-05-18T14:25:46.207Z,8.30
2019-05-18T14:28:14.947Z,8.48
2019-05-18T14:30:43.971Z,16.52
2019-05-18T14:33:12.666Z,8.60
2019-05-18T14:35:41.429Z,10.38
2019-05-18T14:38:09.982Z,8.28
2019-05-18T14:40:38.471Z,8.58
2019-05-18T14:43:08.364Z,9.63
2019-05-18T14:45:38.839Z,11.12
2019-05-18T14:48:07.466Z,11.43
2019-05-18T14:50:36.217Z,14.83
2019-05-18T14:53:05.213Z,7.72
2019-05-18T14:55:34.180Z,8.03
2019-05-18T14:58:03.048Z,9.05
2019-05-18T15:00:31.662Z,9.38
2019-05-18T15:03:02.393Z,16.45
2019-05-18T15:05:31.114Z,9.38
2019-05-18T15:07:59.812Z,9.45
2019-05-18T15:10:28.148Z,9.05
2019-05-18T15:12:56.918Z,10.08
2019-05-18T15:15:25.569Z,16.70
2019-05-18T15:17:54.236Z,7.67
2019-05-18T15:20:22.953Z,7.85
2019-05-18T15:22:51.700Z,8.63
2019-05-18T15:25:20.633Z,12.65
2019-05-18T15:27:49.395Z,7.20
2019-05-18T15:30:18.700Z,11.68
2019-05-18T15:32:47.063Z,6.50
2019-05-18T15:35:16.745Z,6.90
2019-05-18T15:37:45.909Z,10.23
2019-05-18T15:40:15.204Z,6.90
2019-05-18T15:42:43.841Z,7.97
2019-05-18T15:45:15.888Z,8.78
2019-05-18T15:47:46.443Z,8.00
2019-05-18T15:50:16.091Z,7.15
2019-05-18T15:52:44.457Z,7.55
2019-05-18T15:55:13.504Z,8.25
2019-05-18T15:57:42.327Z,10.08
2019-05-18T16:00:14.045Z,11.43
2019-05-18T16:02:42.891Z,7.70
2019-05-18T16:05:13.049Z,10.48
2019-05-18T16:10:11.943Z,8.73
2019-05-18T16:12:41.020Z,8.80
2019-05-18T16:15:11.298Z,7.58
2019-05-18T16:17:40.570Z,11.30
2019-05-18T16:20:10.656Z,9.23
2019-05-18T16:25:08.026Z,12.45
2019-05-18T16:27:36.598Z,7.50
2019-05-18T16:30:05.722Z,5.03
2019-05-18T16:32:34.531Z,19.05
2019-05-18T16:35:03.175Z,9.08
2019-05-18T16:37:31.647Z,10.53
2019-05-18T16:40:01.142Z,8.05
2019-05-18T16:42:29.998Z,12.58
2019-05-18T16:44:59.016Z,12.95
2019-05-18T16:47:27.619Z,9.75
2019-05-18T16:49:58.692Z,7.85
2019-05-18T16:52:27.383Z,9.25
2019-05-18T16:54:56.097Z,9.03
2019-05-18T16:57:24.762Z,7.62
2019-05-18T16:59:53.107Z,9.93
2019-05-18T17:02:31.285Z,5.80
2019-05-18T17:04:52.656Z,8.50
2019-05-18T17:07:21.319Z,9.30
2019-05-18T17:09:50.043Z,9.88
2019-05-18T17:12:19.051Z,13.05
2019-05-18T17:14:47.989Z,7.45
2019-05-18T17:17:16.414Z,10.98
2019-05-18T17:19:45.186Z,11.53
2019-05-18T17:22:13.754Z,8.63
2019-05-18T17:24:42.481Z,11.08
2019-05-18T17:27:11.122Z,13.38
2019-05-18T17:29:40.766Z,9.85
2019-05-18T17:32:09.392Z,11.90
2019-05-18T17:34:38.135Z,6.95
2019-05-18T17:37:06.587Z,12.20
2019-05-18T17:39:35.018Z,10.20
2019-05-18T17:42:05.135Z,15.10
2019-05-18T17:44:34.066Z,11.63
2019-05-18T17:47:03.096Z,11.10
2019-05-18T17:49:31.525Z,8.95
2019-05-18T17:54:32.200Z,7.95
2019-05-18T17:57:08.636Z,13.00
2019-05-18T18:01:59.516Z,9.03
2019-05-18T18:04:27.895Z,7.95
2019-05-18T18:06:56.872Z,11.33
2019-05-18T18:09:25.605Z,10.48
2019-05-18T18:11:54.380Z,12.68
2019-05-18T18:14:22.927Z,13.30
2019-05-18T18:16:51.948Z,13.38
2019-05-18T18:19:20.967Z,14.80
2019-05-18T18:21:50.001Z,15.10
2019-05-18T18:24:18.617Z,12.53
2019-05-18T18:26:47.560Z,17.40
2019-05-18T18:29:16.028Z,15.40
2019-05-18T18:31:45.006Z,16.25
2019-05-18T18:34:13.677Z,7.42
2019-05-18T18:36:42.364Z,11.53
2019-05-18T18:39:11.470Z,13.85
2019-05-18T18:41:40.053Z,11.53
2019-05-18T18:44:08.834Z,11.33
2019-05-18T18:46:37.458Z,16.35
2019-05-18T18:49:06.092Z,13.62
2019-05-18T18:51:34.823Z,12.53
2019-05-18T18:56:33.567Z,11.20
2019-05-18T18:59:02.076Z,13.43
2019-05-18T19:01:31.059Z,16.02
2019-05-18T19:03:59.765Z,15.83
2019-05-18T19:06:28.251Z,12.25
2019-05-18T19:08:56.828Z,18.50
2019-05-18T19:11:25.450Z,13.65
2019-05-18T19:13:53.888Z,15.55
2019-05-18T19:16:22.578Z,15.32
2019-05-18T19:18:51.253Z,14.78
2019-05-18T19:21:19.993Z,25.02
2019-05-18T19:23:48.946Z,15.45
2019-05-18T19:26:17.634Z,17.70
2019-05-18T19:28:46.013Z,16.80
2019-05-18T19:31:15.004Z,20.80
2019-05-18T19:33:43.988Z,18.85
2019-05-18T19:36:12.533Z,17.05
2019-05-18T19:41:10.907Z,14.43
2019-05-18T19:43:39.413Z,17.23
2019-05-18T19:46:08.076Z,13.70
2019-05-18T19:48:37.379Z,18.77
2019-05-18T19:51:06.320Z,13.88
2019-05-18T19:53:35.661Z,14.83
2019-05-18T19:56:06.758Z,16.40
2019-05-18T19:58:35.496Z,23.00
2019-05-18T20:01:04.166Z,20.82
2019-05-18T20:03:32.564Z,19.82
2019-05-18T20:06:02.500Z,20.17
2019-05-18T20:08:31.488Z,16.30
2019-05-18T20:11:00.192Z,18.40
2019-05-18T20:13:29.114Z,19.45
2019-05-18T20:15:57.821Z,15.20
2019-05-18T20:18:26.797Z,19.42
2019-05-18T20:20:55.529Z,17.02
2019-05-18T20:23:24.307Z,16.30
2019-05-18T20:25:52.897Z,22.32
2019-05-18T20:28:24.080Z,17.20
2019-05-18T20:30:52.707Z,20.92
2019-05-18T20:33:21.357Z,14.05
2019-05-18T20:35:50.110Z,16.73
2019-05-18T20:38:18.769Z,19.92
2019-05-18T20:40:48.379Z,17.03
2019-05-18T20:43:16.788Z,17.37
2019-05-18T20:45:45.111Z,16.62
2019-05-18T20:48:16.795Z,18.23
2019-05-18T20:53:12.412Z,18.95
2019-05-18T20:55:41.377Z,15.78
2019-05-18T20:58:11.654Z,20.08
2019-05-18T21:00:40.326Z,15.50
2019-05-18T21:03:09.376Z,21.87
2019-05-18T21:05:38.282Z,14.45
2019-05-18T21:08:06.673Z,13.83
2019-05-18T21:10:35.061Z,20.02
2019-05-18T21:13:04.673Z,15.38
2019-05-18T21:15:33.694Z,15.18
2019-05-18T21:18:02.665Z,14.10
2019-05-18T21:20:31.324Z,15.00
2019-05-18T21:22:59.769Z,15.23
2019-05-18T21:25:28.423Z,14.63
2019-05-18T21:27:57.125Z,18.30
2019-05-18T21:30:25.471Z,15.35
2019-05-18T21:32:54.137Z,12.47
2019-05-18T21:35:22.579Z,13.75
2019-05-18T21:37:51.305Z,12.18
2019-05-18T21:40:20.328Z,14.35
2019-05-18T21:42:49.216Z,18.73
2019-05-18T21:45:17.998Z,12.13
2019-05-18T21:47:46.804Z,14.87
2019-05-18T21:50:16.004Z,15.18
2019-05-18T21:52:44.463Z,14.30
2019-05-18T21:55:13.282Z,14.87
2019-05-18T21:57:42.900Z,11.33
2019-05-18T22:00:13.974Z,16.50
2019-05-18T22:02:42.522Z,14.85
2019-05-18T22:05:11.366Z,12.23
2019-05-18T22:07:39.831Z,12.98
2019-05-18T22:10:23.446Z,14.58
2019-05-18T22:12:39.348Z,17.10
2019-05-18T22:15:08.801Z,14.85
2019-05-18T22:17:56.901Z,17.15
2019-05-18T22:20:25.427Z,14.23
2019-05-18T22:22:54.069Z,13.28
2019-05-18T22:25:22.816Z,13.05
2019-05-18T22:27:51.453Z,12.95
2019-05-18T22:30:20.169Z,28.05
2019-05-18T22:32:49.103Z,14.38
2019-05-18T22:35:18.101Z,11.00
2019-05-18T22:37:46.810Z,14.87
2019-05-18T22:40:17.037Z,12.90
2019-05-18T22:42:45.692Z,10.25
2019-05-18T22:45:15.387Z,16.02
2019-05-18T22:47:44.118Z,12.85
2019-05-18T22:50:12.915Z,12.60
2019-05-18T22:52:41.527Z,12.58
2019-05-18T22:55:10.482Z,13.95
2019-05-18T22:57:39.076Z,12.98
2019-05-18T23:00:08.074Z,13.38
2019-05-18T23:05:06.955Z,13.95
2019-05-18T23:07:35.595Z,11.38
2019-05-18T23:10:05.132Z,12.45
2019-05-18T23:12:33.931Z,13.08
2019-05-18T23:15:02.783Z,11.78
2019-05-18T23:17:31.278Z,12.00
2019-05-18T23:19:59.997Z,12.90
2019-05-18T23:22:29.606Z,11.53
2019-05-18T23:24:58.013Z,14.20
2019-05-18T23:27:26.691Z,10.55
2019-05-18T23:29:55.691Z,15.35
2019-05-18T23:32:24.329Z,10.00
2019-05-18T23:34:53.037Z,13.83
2019-05-18T23:37:21.684Z,13.65
2019-05-18T23:39:50.343Z,10.23
2019-05-18T23:42:20.019Z,14.25
2019-05-18T23:44:49.056Z,11.78
2019-05-18T23:47:17.620Z,15.72
2019-05-18T23:49:46.390Z,13.32
2019-05-18T23:52:15.093Z,10.60
2019-05-18T23:54:43.752Z,11.63
2019-05-18T23:57:12.162Z,12.95
2019-05-18T23:59:40.788Z,14.90
